Time;durP1;ratioP1;P1;durP2;ratioP2;P2;SDS_P1;SDS_P2;PMS_P1;PMS_P2;Temp;Humidity;BMP_temperature;BMP_pressure;BME280_temperature;BME280_humidity;BME280_pressure;Samples;Min_cycle;Max_cycle;Signal;HPM_P1;HPM_P2
2022/05/19 17:46:37;;;;;;;5.95;1.80;;;;;;;;;;5049819;28;20439;-68
2022/05/19 17:49:05;;;;;;;8.32;2.00;;;23.80;76.90;;;;;;5043976;28;20036;-68
2022/05/19 17:51:30;;;;;;;8.80;1.85;;;24.30;45.10;;;;;;5039356;28;20038;-69
2022/05/19 17:53:56;;;;;;;7.28;1.60;;;26.50;50.40;;;;;;5043040;28;20028;-69
2022/05/19 17:56:22;;;;;;;7.25;1.77;;;25.10;45.50;;;;;;5031508;28;20034;-68
2022/05/19 17:58:48;;;;;;;4.93;1.70;;;25.40;46.40;;;;;;5040969;28;20108;-68
2022/05/19 18:01:14;;;;;;;5.30;1.70;;;25.30;46.20;;;;;;5042826;28;20662;-68
2022/05/19 18:03:40;;;;;;;7.60;2.25;;;25.30;47.40;;;;;;5043721;28;20152;-68
2022/05/19 18:06:05;;;;;;;8.32;2.50;;;25.10;47.10;;;;;;5043532;28;20100;-67
2022/05/19 18:08:31;;;;;;;6.53;1.92;;;23.70;46.30;;;;;;5043607;28;20445;-66
2022/05/19 18:10:57;;;;;;;10.85;3.10;;;25.70;47.00;;;;;;5042857;28;20037;-66
2022/05/19 18:13:22;;;;;;;9.77;4.07;;;25.30;47.20;;;;;;5036988;28;20037;-66
2022/05/19 18:18:34;;;;;;;6.85;1.90;;;26.00;48.60;;;;;;5041483;28;20080;-68
2022/05/19 18:21:05;;;;;;;7.13;1.70;;;25.20;47.10;;;;;;5040832;28;20045;-67
2022/05/19 18:23:33;;;;;;;7.10;2.05;;;24.60;46.90;;;;;;5035371;28;20097;-67
2022/05/19 18:26:01;;;;;;;9.00;1.77;;;25.50;48.00;;;;;;5043765;28;20048;-67
2022/05/19 18:28:30;;;;;;;10.45;2.10;;;25.60;48.20;;;;;;5041379;28;20072;-67
2022/05/19 18:30:56;;;;;;;7.40;1.83;;;;;;;;;;5048854;28;20047;-67
2022/05/19 18:33:23;;;;;;;4.35;1.73;;;;;;;;;;5045216;28;20029;-67
2022/05/19 18:35:51;;;;;;;6.40;1.85;;;;;;;;;;5045596;28;20033;-67
2022/05/19 18:38:17;;;;;;;6.88;1.60;;;24.30;50.80;;;;;;5047276;28;20212;-67
2022/05/19 18:46:13;;;;;;;6.88;1.85;;;24.90;53.60;;;;;;5038082;28;20599;-67
2022/05/19 18:48:39;;;;;;;7.35;2.00;;;25.00;54.00;;;;;;5042223;28;20504;-67
2022/05/19 18:51:06;;;;;;;6.15;1.75;;;25.30;54.70;;;;;;5043938;28;20029;-67
2022/05/19 18:53:33;;;;;;;9.40;2.35;;;24.30;54.60;;;;;;5029351;28;20100;-67
2022/05/19 18:56:01;;;;;;;6.10;2.00;;;24.80;55.00;;;;;;5034635;28;20040;-67
2022/05/19 18:58:27;;;;;;;10.52;2.17;;;;;;;;;;5023181;28;20113;-67
2022/05/19 19:00:53;;;;;;;7.07;1.77;;;24.50;56.00;;;;;;5026675;28;20029;-67
2022/05/19 19:03:19;;;;;;;7.43;1.80;;;25.00;56.60;;;;;;5028251;28;20075;-67
2022/05/19 19:05:45;;;;;;;5.40;2.00;;;25.40;57.50;;;;;;5032955;28;20068;-67
2022/05/19 19:08:12;;;;;;;8.02;1.80;;;24.40;56.80;;;;;;5017790;28;20030;-67
2022/05/19 19:10:38;;;;;;;6.25;2.00;;;;;;;;;;5028365;28;20033;-67
2022/05/19 19:13:04;;;;;;;8.63;2.25;;;24.00;56.60;;;;;;5030619;28;20480;-67
2022/05/19 19:15:31;;;;;;;8.70;1.90;;;24.30;57.10;;;;;;5030684;28;20029;-67
2022/05/19 19:17:57;;;;;;;9.65;2.33;;;;;;;;;;5028917;28;20437;-66
2022/05/19 19:20:23;;;;;;;6.10;1.90;;;24.60;58.20;;;;;;5016749;28;20073;-66
2022/05/19 19:22:48;;;;;;;4.68;1.80;;;25.50;59.50;;;;;;5023342;28;20045;-66
2022/05/19 19:25:14;;;;;;;6.65;1.95;;;24.20;59.00;;;;;;5027429;28;20037;-67
2022/05/19 19:27:41;;;;;;;5.32;2.08;;;24.20;59.10;;;;;;5028095;28;20031;-66
2022/05/19 19:30:10;;;;;;;5.95;2.13;;;24.20;60.10;;;;;;5025252;28;20048;-66
2022/05/19 19:32:37;;;;;;;7.32;2.20;;;24.00;59.20;;;;;;5015997;28;20034;-66
2022/05/19 19:35:03;;;;;;;9.00;2.22;;;23.90;59.70;;;;;;5029545;28;20043;-66
2022/05/19 19:37:29;;;;;;;7.50;2.10;;;23.80;59.00;;;;;;5044710;28;20030;-66
2022/05/19 19:39:55;;;;;;;6.70;2.20;;;23.70;58.80;;;;;;5019041;28;20033;-66
2022/05/19 19:42:21;;;;;;;5.90;2.10;;;23.70;59.70;;;;;;5016685;28;20113;-66
2022/05/19 19:44:47;;;;;;;11.32;2.38;;;23.70;60.00;;;;;;5027942;28;20144;-66
2022/05/19 19:47:12;;;;;;;5.68;2.10;;;23.50;59.70;;;;;;5029555;28;20036;-66
2022/05/19 19:49:38;;;;;;;7.85;2.55;;;23.50;60.10;;;;;;5026507;28;20037;-67
2022/05/19 19:52:05;;;;;;;7.55;3.65;;;23.50;60.90;;;;;;5026653;28;20030;-67
2022/05/19 19:54:33;;;;;;;10.20;2.90;;;23.50;61.10;;;;;;5029085;28;20076;-67
2022/05/19 19:57:06;;;;;;;11.52;2.55;;;23.40;60.30;;;;;;5027019;28;20063;-67
2022/05/19 19:59:34;;;;;;;5.57;2.15;;;23.40;61.30;;;;;;5026771;28;20095;-67
2022/05/19 20:02:01;;;;;;;7.05;2.20;;;23.30;60.70;;;;;;5028695;28;20041;-67
2022/05/19 20:04:28;;;;;;;9.18;2.42;;;23.30;61.80;;;;;;5032333;28;20034;-67
2022/05/19 20:06:57;;;;;;;6.35;2.10;;;23.30;62.20;;;;;;5025348;28;20033;-67
2022/05/19 20:09:25;;;;;;;8.20;2.00;;;23.30;62.80;;;;;;5015504;28;20511;-67
2022/05/19 20:11:52;;;;;;;6.55;2.17;;;23.20;63.20;;;;;;5029044;28;20401;-67
2022/05/19 20:14:19;;;;;;;6.43;2.03;;;23.10;63.60;;;;;;5029063;28;20116;-67
2022/05/19 20:16:45;;;;;;;10.38;2.35;;;23.10;64.10;;;;;;5028644;28;20037;-66
2022/05/19 20:19:11;;;;;;;8.98;2.15;;;23.10;64.20;;;;;;5035889;28;20076;-67
2022/05/19 20:21:37;;;;;;;7.43;2.00;;;23.00;64.60;;;;;;5028079;28;20028;-67
2022/05/19 20:24:04;;;;;;;7.68;2.20;;;23.00;64.80;;;;;;5029146;28;20073;-67
2022/05/19 20:26:30;;;;;;;7.93;2.15;;;22.80;64.60;;;;;;5018633;28;20034;-67
2022/05/19 20:28:58;;;;;;;4.38;2.03;;;22.80;65.10;;;;;;5029299;28;20642;-67
2022/05/19 20:31:25;;;;;;;6.60;2.40;;;22.80;66.10;;;;;;5027074;28;20057;-67
2022/05/19 20:33:51;;;;;;;6.20;2.80;;;22.80;67.40;;;;;;5031062;28;20025;-67
2022/05/19 20:36:17;;;;;;;8.70;2.70;;;22.70;66.50;;;;;;5027458;28;20791;-67
2022/05/19 20:38:43;;;;;;;6.90;2.60;;;22.70;65.40;;;;;;5019968;28;20042;-67
2022/05/19 20:41:08;;;;;;;6.70;2.45;;;22.70;66.20;;;;;;5028787;28;20025;-67
2022/05/19 20:43:36;;;;;;;6.30;2.40;;;22.70;66.30;;;;;;5023374;28;20037;-66
2022/05/19 20:46:03;;;;;;;5.65;2.40;;;22.60;66.30;;;;;;5027967;28;20041;-66
2022/05/19 20:48:30;;;;;;;6.68;2.35;;;22.60;66.30;;;;;;5023819;28;20022;-66
2022/05/19 20:50:58;;;;;;;7.70;2.65;;;22.60;66.70;;;;;;5028581;28;20083;-66
2022/05/19 20:53:26;;;;;;;8.48;2.47;;;22.60;67.10;;;;;;5030177;28;20037;-67
2022/05/19 20:55:55;;;;;;;6.72;2.38;;;22.60;67.30;;;;;;5023422;28;20120;-66
2022/05/19 20:58:23;;;;;;;6.25;2.53;;;22.60;67.60;;;;;;5023583;28;20018;-67
2022/05/19 21:00:49;;;;;;;7.07;2.33;;;22.60;67.70;;;;;;5025722;28;20111;-66
2022/05/19 21:03:16;;;;;;;7.90;2.78;;;22.50;67.70;;;;;;5028680;28;20021;-66
2022/05/19 21:05:42;;;;;;;5.53;2.10;;;22.50;67.70;;;;;;5030183;28;20128;-67
2022/05/19 21:08:09;;;;;;;5.40;2.47;;;22.50;68.00;;;;;;5028476;28;20025;-66
2022/05/19 21:10:35;;;;;;;5.30;2.33;;;22.40;67.90;;;;;;5035035;28;20184;-66
2022/05/19 21:13:02;;;;;;;6.53;2.38;;;22.40;68.90;;;;;;5023218;28;20516;-67
2022/05/19 21:15:28;;;;;;;8.05;2.65;;;22.40;69.30;;;;;;5021960;28;20502;-66
2022/05/19 21:17:56;;;;;;;5.85;2.50;;;22.30;69.30;;;;;;5027777;28;20037;-66
2022/05/19 21:20:22;;;;;;;5.85;2.40;;;22.20;69.10;;;;;;5021894;28;20539;-66
2022/05/19 21:22:48;;;;;;;7.72;2.70;;;22.20;69.00;;;;;;5018287;28;20077;-66
2022/05/19 21:27:58;;;;;;;7.78;2.75;;;22.10;68.00;;;;;;5016714;28;20559;-66
2022/05/19 21:30:26;;;;;;;8.05;2.70;;;22.10;68.80;;;;;;5032275;28;20038;-66
2022/05/19 21:32:52;;;;;;;6.18;2.67;;;22.10;69.10;;;;;;5015658;28;20027;-66
2022/05/19 21:35:18;;;;;;;9.45;2.72;;;22.00;69.40;;;;;;5032123;28;20041;-66
2022/05/19 21:37:44;;;;;;;5.90;2.50;;;21.90;69.10;;;;;;5022440;28;20116;-66
2022/05/19 21:40:11;;;;;;;7.75;2.65;;;21.90;69.90;;;;;;5018808;28;20022;-66
2022/05/19 21:42:37;;;;;;;7.38;2.92;;;21.90;70.10;;;;;;5012311;28;20036;-66
2022/05/19 21:45:04;;;;;;;5.85;2.40;;;21.80;69.30;;;;;;5025547;28;20057;-66
2022/05/19 21:47:30;;;;;;;7.10;2.78;;;21.80;70.20;;;;;;5018724;28;20044;-66
2022/05/19 21:49:57;;;;;;;6.95;2.70;;;21.70;70.20;;;;;;5026404;28;20392;-66
2022/05/19 21:55:15;;;;;;;7.00;2.60;;;21.70;70.10;;;;;;5016612;28;20104;-66
2022/05/19 21:57:42;;;;;;;6.72;2.28;;;21.60;69.20;;;;;;5017229;28;20062;-66
2022/05/19 22:00:28;;;;;;;5.50;2.50;;;21.60;70.10;;;;;;5031931;28;20033;-67
2022/05/19 22:03:00;;;;;;;8.32;2.60;;;21.60;70.30;;;;;;5021121;28;20075;-67
2022/05/19 22:05:28;;;;;;;7.57;2.72;;;21.60;70.40;;;;;;5030343;28;20057;-67
2022/05/19 22:07:55;;;;;;;7.32;2.58;;;21.50;70.40;;;;;;5025230;28;20034;-67
2022/05/19 22:10:20;;;;;;;7.40;2.70;;;21.50;70.40;;;;;;5021455;28;20113;-67
2022/05/19 22:12:46;;;;;;;6.65;2.75;;;21.50;70.50;;;;;;5015460;28;20099;-67
2022/05/19 22:15:14;;;;;;;9.23;2.70;;;21.50;71.40;;;;;;5027348;28;20416;-67
2022/05/19 22:17:40;;;;;;;10.18;2.60;;;21.50;70.40;;;;;;5018655;28;20041;-67
2022/05/19 22:20:10;;;;;;;9.07;2.63;;;21.40;70.40;;;;;;5026447;28;20033;-67
2022/05/19 22:22:36;;;;;;;7.82;2.53;;;21.40;70.50;;;;;;5019138;28;20036;-67
2022/05/19 22:25:03;;;;;;;9.82;2.30;;;21.40;70.70;;;;;;5019809;28;20037;-67
2022/05/19 22:27:28;;;;;;;9.93;2.42;;;21.30;70.60;;;;;;5023192;28;20022;-67
2022/05/19 22:29:54;;;;;;;7.07;2.42;;;21.30;70.00;;;;;;5041478;28;20071;-67
2022/05/19 22:32:20;;;;;;;6.85;2.50;;;21.30;70.90;;;;;;5017260;28;20021;-67
2022/05/19 22:34:46;;;;;;;9.60;2.80;;;21.30;71.00;;;;;;5032889;28;20029;-67
2022/05/19 22:37:14;;;;;;;9.25;2.50;;;21.20;70.90;;;;;;5026277;28;20061;-67
2022/05/19 22:39:42;;;;;;;10.93;2.67;;;21.10;70.10;;;;;;5029350;28;20030;-66
2022/05/19 22:42:10;;;;;;;7.03;2.72;;;21.10;71.00;;;;;;5041780;28;20037;-66
2022/05/19 22:44:37;;;;;;;5.28;2.60;;;21.00;70.90;;;;;;5012566;28;20444;-66
2022/05/19 22:49:50;;;;;;;6.82;2.63;;;21.00;71.30;;;;;;5021413;28;20048;-67
2022/05/19 22:52:17;;;;;;;7.68;2.63;;;20.90;71.40;;;;;;5029450;28;20036;-66
2022/05/19 22:54:43;;;;;;;7.25;2.50;;;20.90;70.70;;;;;;5029399;28;20060;-67
2022/05/19 22:57:09;;;;;;;7.95;2.50;;;20.90;71.60;;;;;;5024978;28;20468;-67
2022/05/19 22:59:35;;;;;;;8.48;2.50;;;20.80;71.60;;;;;;5030841;28;20037;-67
2022/05/19 23:02:01;;;;;;;9.68;2.40;;;20.80;71.60;;;;;;5029529;28;20025;-66
2022/05/19 23:04:28;;;;;;;6.65;2.30;;;20.70;71.60;;;;;;5032083;28;20041;-66
2022/05/19 23:06:55;;;;;;;8.32;2.33;;;20.70;71.70;;;;;;5024781;28;20029;-66
2022/05/19 23:09:21;;;;;;;8.48;2.40;;;20.70;71.90;;;;;;5026420;28;20022;-66
2022/05/19 23:11:47;;;;;;;11.32;2.40;;;20.60;71.90;;;;;;5026459;28;20044;-67
2022/05/19 23:14:13;;;;;;;7.43;2.30;;;20.60;71.90;;;;;;5019424;28;20044;-66
2022/05/19 23:16:40;;;;;;;7.68;2.53;;;20.50;71.20;;;;;;5027353;28;20164;-66
2022/05/19 23:19:05;;;;;;;12.25;2.40;;;20.50;72.20;;;;;;5022320;28;20125;-66
2022/05/19 23:21:32;;;;;;;11.38;2.42;;;20.40;72.20;;;;;;5030689;28;20144;-67
2022/05/19 23:23:57;;;;;;;10.55;2.58;;;20.40;72.20;;;;;;5028209;28;20029;-67
2022/05/19 23:26:23;;;;;;;9.82;2.35;;;20.40;72.30;;;;;;5026829;28;20033;-66
2022/05/19 23:28:49;;;;;;;10.27;2.22;;;20.30;72.30;;;;;;5026902;28;20081;-67
2022/05/19 23:31:15;;;;;;;10.70;2.15;;;20.30;72.10;;;;;;5030923;28;20030;-67
2022/05/19 23:33:44;;;;;;;12.75;2.60;;;20.20;71.30;;;;;;5020000;28;20049;-67
2022/05/19 23:36:16;;;;;;;7.75;2.20;;;20.20;72.10;;;;;;5016270;28;20098;-66
2022/05/19 23:38:42;;;;;;;9.32;2.55;;;20.20;72.30;;;;;;5024639;28;20037;-67
2022/05/19 23:41:09;;;;;;;9.60;2.30;;;;;;;;;;5028856;28;20510;-67
2022/05/19 23:43:35;;;;;;;10.52;2.38;;;20.10;71.70;;;;;;5021797;28;20409;-66
2022/05/19 23:46:01;;;;;;;13.43;2.60;;;20.10;72.50;;;;;;5028063;28;20080;-67
2022/05/19 23:48:28;;;;;;;9.60;2.50;;;20.00;72.40;;;;;;5028875;28;20026;-67
2022/05/19 23:50:55;;;;;;;10.23;2.35;;;20.00;71.60;;;;;;5027931;28;20037;-67
2022/05/19 23:53:22;;;;;;;11.13;2.55;;;19.90;72.40;;;;;;5020059;28;20051;-66
2022/05/19 23:55:48;;;;;;;7.93;1.90;;;20.00;72.50;;;;;;5028375;28;20079;-67
2022/05/19 23:58:15;;;;;;;9.73;2.38;;;19.90;73.50;;;;;;5020187;28;20025;-66
